Time;durP1;ratioP1;P1;durP2;ratioP2;P2;SDS_P1;SDS_P2;PMS_P1;PMS_P2;Temp;Humidity;BMP_temperature;BMP_pressure;BME280_temperature;BME280_humidity;BME280_pressure;Samples;Min_cycle;Max_cycle;Signal;HPM_P1;HPM_P2
2024/01/11 08:59:48;;;;;;;;;;;;;;;4.24;100.00;100868.63;5022272;28;19927;-80
2024/01/11 09:02:13;;;;;;;;;;;;;;;4.25;100.00;100877.41;5011989;28;19921;-81
2024/01/11 09:04:39;;;;;;;;;;;;;;;4.25;100.00;100873.00;5021675;28;20011;-83
2024/01/11 09:07:04;;;;;;;;;;;;;;;7.40;100.00;100861.50;5022944;28;20048;-87
2024/01/11 09:09:30;;;;;;;;;;;;;;;5.55;100.00;100873.59;5021498;28;20043;-82
2024/01/11 09:11:55;;;;;;;;;;;;;;;5.08;100.00;100872.91;5020032;28;20024;-81
2024/01/11 09:14:20;;;;;;;;;;;;;;;4.64;100.00;100875.63;5021802;28;19929;-83
2024/01/11 09:16:48;;;;;;;;;;;;;;;4.48;100.00;100886.16;5022079;28;19917;-83
2024/01/11 09:19:14;;;;;;;;;;;;;;;4.43;100.00;100871.25;5012025;28;19976;-83
2024/01/11 09:21:39;;;;;;;;;;;;;;;4.43;100.00;100872.13;5021432;28;19925;-84
2024/01/11 09:24:04;;;;;;;;;;;;;;;4.37;100.00;100869.50;5021742;28;20336;-83
2024/01/11 09:26:29;;;;;;;;;;;;;;;4.38;100.00;100870.41;5022476;28;20423;-81
2024/01/11 09:28:54;;;;;;;;;;;;;;;4.35;100.00;100871.25;5015365;28;19921;-88
2024/01/11 09:31:20;;;;;;;;;;;;;;;4.30;100.00;100865.16;5024945;28;19921;-87
2024/01/11 09:33:45;;;;;;;;;;;;;;;4.32;100.00;100863.38;5026033;28;19921;-81
2024/01/11 09:36:11;;;;;;;;;;;;;;;4.32;100.00;100872.16;5024848;28;20293;-84
2024/01/11 09:38:37;;;;;;;;;;;;;;;4.29;100.00;100869.53;5025372;28;20352;-83
2024/01/11 09:41:02;;;;;;;;;;;;;;;4.30;100.00;100871.25;5023530;28;19940;-81
2024/01/11 09:43:28;;;;;;;;;;;;;;;4.27;100.00;100873.00;5024576;28;19921;-81
2024/01/11 09:45:54;;;;;;;;;;;;;;;4.27;100.00;100876.50;5024530;28;19917;-83
2024/01/11 09:48:20;;;;;;;;;;;;;;;4.25;100.00;100880.00;5024524;28;20315;-84
2024/01/11 09:50:45;;;;;;;;;;;;;;;4.29;100.00;100873.88;5024843;28;20017;-84
2024/01/11 09:53:11;;;;;;;;;;;;;;;4.29;100.00;100876.50;5024779;28;20008;-79
2024/01/11 09:55:36;;;;;;;;;;;;;;;4.25;100.00;100880.00;5008027;28;20322;-81
2024/01/11 09:58:02;;;;;;;;;;;;;;;4.28;100.00;100880.03;5026671;28;20364;-82
2024/01/11 10:00:28;;;;;;;;;;;;;;;4.27;100.00;100892.25;5044893;28;19917;-82
2024/01/11 10:02:53;;;;;;;;;;;;;;;4.25;100.00;100893.13;5044652;28;19928;-84
2024/01/11 10:05:18;;;;;;;;;;;;;;;4.24;100.00;100886.13;5044371;28;19920;-79
2024/01/11 10:07:45;;;;;;;;;;;;;;;4.30;100.00;100894.00;5044429;28;19917;-81
2024/01/11 10:10:10;;;;;;;;;;;;;;;4.72;100.00;100885.25;5044429;28;20081;-80
2024/01/11 10:12:36;;;;;;;;;;;;;;;5.12;100.00;100873.75;5042708;28;20023;-80
2024/01/11 10:15:06;;;;;;;;;;;;;;;5.34;100.00;100878.94;5043984;28;19921;-86
2024/01/11 10:20:10;;;;;;;;;;;;;;;5.65;100.00;100879.69;5254028;23;20296;-80
2024/01/11 10:22:36;;;;;;;;;;;;;;;5.71;100.00;100879.66;5014262;28;19921;-81
2024/01/11 10:25:11;;;;;;;;;;;;;;;5.82;100.00;100879.56;5014309;28;20398;-82
2024/01/11 10:27:37;;;;;;;;;;;;;;;5.89;100.00;100881.31;5012982;28;20423;-82
2024/01/11 10:30:03;;;;;;;;;;;;;;;5.98;100.00;100883.03;5014094;28;19925;-81
2024/01/11 10:32:28;;;;;;;;;;;;;;;6.03;100.00;100880.38;5014223;28;19917;-81
2024/01/11 10:34:53;;;;;;;;;;;;;;;6.09;100.00;100868.03;5014251;28;19921;-84
2024/01/11 10:37:19;;;;;;;;;;;;;;;6.16;100.00;100869.75;4996171;28;19922;-86
2024/01/11 10:39:46;;;;;;;;;;;;;;;6.21;100.00;100874.97;5014046;28;19921;-85
2024/01/11 10:42:12;;;;;;;;;;;;;;;6.25;100.00;100868.78;5011839;28;20328;-85
2024/01/11 10:44:40;;;;;;;;;;;;;;;6.30;100.00;100869.66;5014006;28;19937;-85
2024/01/11 10:47:09;;;;;;;;;;;;;;;6.33;100.00;100874.91;5013860;28;19926;-84
2024/01/11 10:49:37;;;;;;;;;;;;;;;6.40;100.00;100874.81;5013162;28;20362;-84
2024/01/11 10:52:05;;;;;;;;;;;;;;;6.41;100.00;100869.53;5014113;28;20335;-85
2024/01/11 10:54:31;;;;;;;;;;;;;;;6.46;100.00;100874.75;5013858;28;19921;-84
2024/01/11 10:56:59;;;;;;;;;;;;;;;6.46;100.00;100869.50;5012702;28;19917;-82
2024/01/11 10:59:25;;;;;;;;;;;;;;;6.51;100.00;100867.69;5013050;28;19918;-80
2024/01/11 11:01:56;;;;;;;;;;;;;;;6.58;100.00;100879.06;5013684;28;20368;-80
2024/01/11 11:04:22;;;;;;;;;;;;;;;6.58;100.00;100869.41;5013367;28;19928;-84
2024/01/11 11:06:49;;;;;;;;;;;;;;;6.60;100.00;100862.34;5013555;28;20345;-84
2024/01/11 11:09:14;;;;;;;;;;;;;;;6.61;100.00;100857.97;5012786;28;20388;-83
2024/01/11 11:11:40;;;;;;;;;;;;;;;6.65;100.00;100850.03;5012356;28;19925;-81
2024/01/11 11:14:07;;;;;;;;;;;;;;;6.68;100.00;100835.94;5013448;28;20330;-81
2024/01/11 11:16:32;;;;;;;;;;;;;;;6.70;100.00;100835.06;5013180;28;19940;-81
2024/01/11 11:18:58;;;;;;;;;;;;;;;6.72;100.00;100841.16;4989007;28;19921;-85
2024/01/11 11:21:24;;;;;;;;;;;;;;;6.77;100.00;100838.50;4993873;28;20372;-84
2024/01/11 11:23:50;;;;;;;;;;;;;;;6.78;100.00;100836.72;4994561;28;19929;-80
2024/01/11 11:26:16;;;;;;;;;;;;;;;6.83;100.00;100853.34;4974864;28;19921;-84
2024/01/11 11:28:41;;;;;;;;;;;;;;;6.85;100.00;100863.00;4993454;28;19918;-81
2024/01/11 11:31:07;;;;;;;;;;;;;;;6.85;100.00;100859.50;4993222;28;19918;-85
2024/01/11 11:33:32;;;;;;;;;;;;;;;6.89;100.00;100858.53;4993300;28;20290;-83
2024/01/11 11:35:58;;;;;;;;;;;;;;;6.91;100.00;100856.78;4993340;28;19922;-81
2024/01/11 11:38:33;;;;;;;;;;;;;;;6.92;100.00;100842.72;5008115;28;20592;-79
2024/01/11 11:40:59;;;;;;;;;;;;;;;6.95;100.00;100845.31;4991729;28;19928;-79
2024/01/11 11:43:26;;;;;;;;;;;;;;;6.96;100.00;100827.75;4992917;28;20396;-81
2024/01/11 11:45:51;;;;;;;;;;;;;;;6.98;100.00;100829.47;4975665;28;19918;-80
2024/01/11 11:48:29;;;;;;;;;;;;;;;6.99;100.00;100825.97;4992504;28;20324;-80
2024/01/11 11:51:01;;;;;;;;;;;;;;;7.03;100.00;100829.41;4992821;28;19947;-82
2024/01/11 11:53:29;;;;;;;;;;;;;;;7.07;100.00;100828.50;4992125;28;19917;-82
2024/01/11 11:55:55;;;;;;;;;;;;;;;7.09;100.00;100839.91;4975277;28;19917;-83
2024/01/11 11:58:20;;;;;;;;;;;;;;;7.09;100.00;100829.34;4992320;28;19964;-78
2024/01/11 12:00:47;;;;;;;;;;;;;;;7.09;100.00;100840.75;4992919;28;20393;-78
2024/01/11 12:03:13;;;;;;;;;;;;;;;7.11;100.00;100840.75;4992834;28;19929;-81
2024/01/11 12:05:38;;;;;;;;;;;;;;;7.13;100.00;100830.19;4992031;28;20338;-79
2024/01/11 12:08:03;;;;;;;;;;;;;;;7.15;100.00;100841.56;4992732;28;20016;-81
2024/01/11 12:10:29;;;;;;;;;;;;;;;7.18;100.00;100841.53;4992780;28;19918;-81
2024/01/11 12:12:54;;;;;;;;;;;;;;;7.17;100.00;100845.09;5006724;28;19917;-80
2024/01/11 12:15:19;;;;;;;;;;;;;;;7.20;100.00;100834.50;4975311;28;19922;-81
2024/01/11 12:17:45;;;;;;;;;;;;;;;7.20;100.00;100823.97;4992464;28;20001;-81
2024/01/11 12:20:12;;;;;;;;;;;;;;;7.20;100.00;100819.53;4987810;28;19964;-81
2024/01/11 12:22:38;;;;;;;;;;;;;;;7.23;100.00;100810.75;4992432;28;19949;-80
2024/01/11 12:25:06;;;;;;;;;;;;;;;7.24;100.00;100807.19;4992592;28;20463;-78
2024/01/11 12:27:32;;;;;;;;;;;;;;;7.24;100.00;100808.09;4990761;28;20385;-80
2024/01/11 12:29:57;;;;;;;;;;;;;;;7.22;100.00;100804.56;4992167;28;19964;-81
2024/01/11 12:32:23;;;;;;;;;;;;;;;7.25;100.00;100809.81;4992411;28;20377;-88
2024/01/11 12:34:48;;;;;;;;;;;;;;;7.27;100.00;100812.44;4991260;28;19913;-81
2024/01/11 12:37:15;;;;;;;;;;;;;;;7.30;100.00;100815.03;4992518;28;19964;-80
2024/01/11 12:39:40;;;;;;;;;;;;;;;7.31;100.00;100810.63;4991577;28;20018;-82
2024/01/11 12:42:06;;;;;;;;;;;;;;;7.33;100.00;100812.34;4991302;28;19921;-83
2024/01/11 12:44:32;;;;;;;;;;;;;;;7.34;100.00;100807.94;4992499;28;20477;-83
2024/01/11 12:46:57;;;;;;;;;;;;;;;7.35;100.00;100804.41;4992466;28;19914;-83
2024/01/11 12:49:23;;;;;;;;;;;;;;;7.35;100.00;100801.78;4992445;28;19928;-84
2024/01/11 12:51:50;;;;;;;;;;;;;;;7.37;100.00;100803.53;4990942;28;19953;-83
2024/01/11 12:54:19;;;;;;;;;;;;;;;7.37;100.00;100803.53;4992167;28;19933;-82
2024/01/11 12:56:45;;;;;;;;;;;;;;;7.12;100.00;100802.09;4990761;28;20427;-80
2024/01/11 12:59:11;;;;;;;;;;;;;;;6.29;100.00;100806.50;4992299;28;19918;-81
2024/01/11 13:01:38;;;;;;;;;;;;;;;5.96;100.00;100795.31;4996146;28;20389;-81
2024/01/11 13:04:03;;;;;;;;;;;;;;;5.75;100.00;100788.47;4995649;28;19922;-79
2024/01/11 13:06:29;;;;;;;;;;;;;;;5.66;100.00;100793.78;4994669;28;19922;-79
2024/01/11 13:08:55;;;;;;;;;;;;;;;5.53;100.00;100785.97;4996261;28;19921;-82
2024/01/11 13:11:21;;;;;;;;;;;;;;;5.46;100.00;100797.41;4994688;28;20228;-81
2024/01/11 13:13:47;;;;;;;;;;;;;;;5.35;100.00;100791.34;4996105;28;19918;-78
2024/01/11 13:16:14;;;;;;;;;;;;;;;5.31;100.00;100793.09;4996037;28;20017;-80
2024/01/11 13:18:39;;;;;;;;;;;;;;;5.29;100.00;100786.97;4999209;28;19929;-81
2024/01/11 13:21:06;;;;;;;;;;;;;;;5.20;100.00;100785.28;5015507;28;19922;-81
2024/01/11 13:23:31;;;;;;;;;;;;;;;5.17;100.00;100792.28;4997458;28;20372;-81
2024/01/11 13:25:57;;;;;;;;;;;;;;;5.17;100.00;100790.56;5015190;28;19924;-80
2024/01/11 13:28:22;;;;;;;;;;;;;;;5.14;100.00;100792.28;5014221;28;19925;-84
2024/01/11 13:30:48;;;;;;;;;;;;;;;5.09;100.00;100794.97;5015204;28;19925;-81
2024/01/11 13:33:16;;;;;;;;;;;;;;;5.07;100.00;100800.22;5014403;28;19971;-82
2024/01/11 13:35:45;;;;;;;;;;;;;;;5.03;100.00;100797.63;5015293;28;19975;-85
2024/01/11 13:38:10;;;;;;;;;;;;;;;5.03;100.00;100792.38;4996626;28;19918;-79
2024/01/11 13:40:35;;;;;;;;;;;;;;;4.99;100.00;100795.88;5014890;28;20123;-80
2024/01/11 13:43:04;;;;;;;;;;;;;;;4.96;100.00;100793.25;5013708;28;19924;-80
2024/01/11 13:45:32;;;;;;;;;;;;;;;4.97;100.00;100800.28;5015028;28;19917;-80
2024/01/11 13:47:57;;;;;;;;;;;;;;;4.93;100.00;100788.91;5014476;28;19929;-81
2024/01/11 13:50:26;;;;;;;;;;;;;;;4.88;100.00;100801.16;5014827;28;20373;-83
2024/01/11 13:52:51;;;;;;;;;;;;;;;4.90;100.00;100800.28;5014976;28;19940;-82
2024/01/11 13:55:17;;;;;;;;;;;;;;;4.86;100.00;100803.78;5014812;28;20384;-84
2024/01/11 13:57:43;;;;;;;;;;;;;;;4.83;100.00;100811.66;5013627;28;19925;-82
2024/01/11 14:00:11;;;;;;;;;;;;;;;4.80;100.00;100816.06;4993990;28;19929;-79
2024/01/11 14:02:36;;;;;;;;;;;;;;;4.83;100.00;100818.69;5013841;28;20042;-79
2024/01/11 14:05:03;;;;;;;;;;;;;;;4.77;100.00;100816.06;5014577;28;19917;-83
2024/01/11 14:07:28;;;;;;;;;;;;;;;4.77;100.00;100819.59;5014567;28;20353;-80
2024/01/11 14:09:53;;;;;;;;;;;;;;;4.77;100.00;100821.31;5014259;28;19957;-78
2024/01/11 14:12:18;;;;;;;;;;;;;;;4.75;100.00;100821.31;5012728;28;19928;-81
2024/01/11 14:14:43;;;;;;;;;;;;;;;4.76;100.00;100828.34;5014370;28;19924;-82
2024/01/11 14:17:09;;;;;;;;;;;;;;;4.73;100.00;100823.97;4996525;28;19917;-79
2024/01/11 14:19:34;;;;;;;;;;;;;;;4.71;100.00;100820.47;4996302;28;20024;-82
2024/01/11 14:22:00;;;;;;;;;;;;;;;4.70;100.00;100820.47;5014478;28;19984;-80
2024/01/11 14:24:25;;;;;;;;;;;;;;;4.68;100.00;100820.47;5013926;28;20379;-79
2024/01/11 14:26:51;;;;;;;;;;;;;;;4.70;100.00;100823.09;5013093;28;19921;-79
2024/01/11 14:29:16;;;;;;;;;;;;;;;4.71;100.00;100823.09;5014177;28;19963;-79
2024/01/11 14:31:42;;;;;;;;;;;;;;;4.68;100.00;100820.47;5014256;28;20280;-79
2024/01/11 14:34:07;;;;;;;;;;;;;;;4.63;100.00;100821.38;5014190;28;20272;-78
2024/01/11 14:36:32;;;;;;;;;;;;;;;4.61;100.00;100826.63;5014091;28;20376;-79
2024/01/11 14:38:57;;;;;;;;;;;;;;;4.62;100.00;100830.13;4996294;28;19917;-77
2024/01/11 14:41:23;;;;;;;;;;;;;;;4.61;100.00;100825.72;5012585;28;19925;-82
2024/01/11 14:43:48;;;;;;;;;;;;;;;4.56;100.00;100828.38;5013985;28;19917;-78
2024/01/11 14:46:13;;;;;;;;;;;;;;;4.60;100.00;100837.13;5013928;28;20380;-79
2024/01/11 14:48:38;;;;;;;;;;;;;;;4.60;100.00;100824.88;5013772;28;19917;-82
2024/01/11 14:51:05;;;;;;;;;;;;;;;4.55;100.00;100818.75;5013676;28;19918;-83
2024/01/11 14:53:30;;;;;;;;;;;;;;;4.55;100.00;100814.38;5012969;28;19918;-80
2024/01/11 14:55:55;;;;;;;;;;;;;;;4.54;100.00;100811.75;5013274;28;19927;-83
2024/01/11 14:58:21;;;;;;;;;;;;;;;4.53;100.00;100818.75;5013177;28;19917;-80
2024/01/11 15:00:50;;;;;;;;;;;;;;;4.55;100.00;100818.75;4995610;28;19917;-79
2024/01/11 15:03:15;;;;;;;;;;;;;;;4.57;100.00;100817.00;5013462;28;19929;-82
2024/01/11 15:05:40;;;;;;;;;;;;;;;4.56;100.00;100820.50;5013485;28;19918;-79
2024/01/11 15:08:06;;;;;;;;;;;;;;;4.53;100.00;100826.63;5013539;28;19967;-77
2024/01/11 15:10:31;;;;;;;;;;;;;;;4.46;100.00;100832.75;4995370;28;19918;-84
2024/01/11 15:12:56;;;;;;;;;;;;;;;4.50;100.00;100836.25;4993376;28;19960;-80
2024/01/11 15:15:22;;;;;;;;;;;;;;;4.50;100.00;100842.38;5013507;28;20008;-85
2024/01/11 15:17:47;;;;;;;;;;;;;;;4.47;100.00;100847.66;5013193;28;19917;-79
2024/01/11 15:20:12;;;;;;;;;;;;;;;4.47;100.00;100845.03;5013213;28;19968;-79
2024/01/11 15:22:37;;;;;;;;;;;;;;;4.43;100.00;100850.25;5012902;28;19917;-80
2024/01/11 15:25:03;;;;;;;;;;;;;;;4.40;100.00;100851.13;5012498;28;19917;-79
2024/01/11 15:27:28;;;;;;;;;;;;;;;4.43;100.00;100851.13;5011921;28;19917;-77
2024/01/11 15:29:53;;;;;;;;;;;;;;;4.47;100.00;100852.88;5013108;28;19914;-80
2024/01/11 15:32:18;;;;;;;;;;;;;;;4.42;100.00;100859.00;5013162;28;19917;-79
2024/01/11 15:34:44;;;;;;;;;;;;;;;4.41;100.00;100863.38;5013278;28;19921;-81
2024/01/11 15:37:09;;;;;;;;;;;;;;;4.44;100.00;100867.78;5013071;28;19917;-81
2024/01/11 15:39:35;;;;;;;;;;;;;;;4.39;100.00;100865.16;4994957;28;19944;-83
2024/01/11 15:42:01;;;;;;;;;;;;;;;4.36;100.00;100870.41;5011553;28;19963;-83
2024/01/11 15:44:26;;;;;;;;;;;;;;;4.39;100.00;100875.66;5012922;28;20005;-78
2024/01/11 15:46:51;;;;;;;;;;;;;;;4.37;100.00;100877.38;5012784;28;20392;-80
2024/01/11 15:49:17;;;;;;;;;;;;;;;4.36;100.00;100881.75;4994974;28;20395;-81
2024/01/11 15:51:42;;;;;;;;;;;;;;;4.41;100.00;100883.53;5012845;28;19928;-80
2024/01/11 15:54:08;;;;;;;;;;;;;;;4.33;100.00;100876.50;5012689;28;19923;-79
2024/01/11 15:56:33;;;;;;;;;;;;;;;4.35;100.00;100889.63;5011421;28;19949;-79
2024/01/11 15:58:58;;;;;;;;;;;;;;;4.41;100.00;100889.63;5012944;28;19924;-78
2024/01/11 16:01:23;;;;;;;;;;;;;;;4.35;100.00;100879.13;5012666;28;19914;-80
2024/01/11 16:03:51;;;;;;;;;;;;;;;4.35;100.00;100884.38;5012608;28;20357;-79
2024/01/11 16:06:17;;;;;;;;;;;;;;;4.34;100.00;100880.88;5012013;28;19928;-78
2024/01/11 16:08:42;;;;;;;;;;;;;;;4.33;100.00;100880.88;5012160;28;19917;-84
2024/01/11 16:11:07;;;;;;;;;;;;;;;4.36;100.00;100886.13;5011199;28;19924;-79
2024/01/11 16:13:32;;;;;;;;;;;;;;;4.34;100.00;100893.13;4994481;28;19921;-81
2024/01/11 16:15:58;;;;;;;;;;;;;;;4.36;100.00;100888.75;4994535;28;20288;-79
2024/01/11 16:18:26;;;;;;;;;;;;;;;4.35;100.00;100900.13;4994204;28;20272;-77
2024/01/11 16:20:51;;;;;;;;;;;;;;;4.36;100.00;100899.25;5012196;28;19964;-80
2024/01/11 16:23:17;;;;;;;;;;;;;;;4.33;100.00;100894.00;4994247;28;19941;-81
2024/01/11 16:25:43;;;;;;;;;;;;;;;4.31;100.00;100899.25;5012251;28;20392;-88
2024/01/11 16:28:08;;;;;;;;;;;;;;;4.35;100.00;100910.63;4992383;28;19921;-86
2024/01/11 16:30:33;;;;;;;;;;;;;;;4.33;100.00;100904.50;5012032;28;19917;-78
2024/01/11 16:32:59;;;;;;;;;;;;;;;4.34;100.00;100908.84;5012491;28;20288;-80
2024/01/11 16:35:25;;;;;;;;;;;;;;;4.32;100.00;100913.25;5015891;28;19961;-79
2024/01/11 16:37:50;;;;;;;;;;;;;;;4.28;100.00;100914.13;5018669;28;19957;-78
2024/01/11 16:40:15;;;;;;;;;;;;;;;4.27;100.00;100917.63;5018790;28;19925;-79
2024/01/11 16:42:40;;;;;;;;;;;;;;;4.30;100.00;100913.25;5017393;28;20372;-79
2024/01/11 16:45:06;;;;;;;;;;;;;;;4.28;100.00;100911.50;5000923;28;19918;-79
2024/01/11 16:47:35;;;;;;;;;;;;;;;4.28;100.00;100912.38;5018730;28;19925;-82
2024/01/11 16:50:04;;;;;;;;;;;;;;;4.29;100.00;100910.59;5018090;28;20363;-79
2024/01/11 16:52:29;;;;;;;;;;;;;;;4.66;100.00;100915.84;5018206;28;19926;-85
2024/01/11 16:54:54;;;;;;;;;;;;;;;5.04;100.00;100914.94;5018309;28;19921;-90
2024/01/11 16:57:20;;;;;;;;;;;;;;;5.33;100.00;100922.75;4999644;28;19929;-85
2024/01/11 16:59:45;;;;;;;;;;;;;;;5.52;100.00;100920.06;5018513;28;19917;-81
2024/01/11 17:02:10;;;;;;;;;;;;;;;5.62;100.00;100914.75;5018815;28;20357;-80
2024/01/11 17:04:35;;;;;;;;;;;;;;;5.74;100.00;100911.19;5018410;28;20369;-81
2024/01/11 17:07:01;;;;;;;;;;;;;;;5.82;100.00;100904.16;5018553;28;20373;-80
2024/01/11 17:09:26;;;;;;;;;;;;;;;5.90;100.00;100911.97;5018356;28;19957;-79
2024/01/11 17:11:51;;;;;;;;;;;;;;;5.96;100.00;100914.59;5017169;28;20388;-80
2024/01/11 17:14:16;;;;;;;;;;;;;;;6.03;100.00;100909.31;5018340;28;20004;-80
2024/01/11 17:16:42;;;;;;;;;;;;;;;6.09;100.00;100904.88;5018341;28;19921;-79
2024/01/11 17:19:07;;;;;;;;;;;;;;;6.16;100.00;100913.63;5018391;28;19922;-79
2024/01/11 17:21:32;;;;;;;;;;;;;;;6.22;100.00;100913.56;5018293;28;19929;-80
2024/01/11 17:23:57;;;;;;;;;;;;;;;6.25;100.00;100910.03;5018219;28;19936;-80
2024/01/11 17:26:23;;;;;;;;;;;;;;;6.30;100.00;100919.66;5017143;28;19925;-80
2024/01/11 17:28:48;;;;;;;;;;;;;;;6.36;100.00;100911.69;5018255;28;20016;-81
2024/01/11 17:31:13;;;;;;;;;;;;;;;6.40;100.00;100916.94;5000331;28;20526;-82
2024/01/11 17:33:38;;;;;;;;;;;;;;;6.44;100.00;100923.94;5018188;28;19917;-79
2024/01/11 17:36:05;;;;;;;;;;;;;;;6.49;100.00;100928.31;5018342;28;19943;-81
2024/01/11 17:38:30;;;;;;;;;;;;;;;6.55;100.00;100932.63;5000515;28;19925;-81
2024/01/11 17:40:55;;;;;;;;;;;;;;;6.58;100.00;100940.50;5018015;28;19921;-78
2024/01/11 17:43:20;;;;;;;;;;;;;;;6.62;100.00;100944.88;5017004;28;19918;-82
2024/01/11 17:45:48;;;;;;;;;;;;;;;6.65;100.00;100943.97;5017520;28;19957;-80
2024/01/11 17:48:14;;;;;;;;;;;;;;;6.66;100.00;100949.22;5013727;28;20328;-78
2024/01/11 17:50:39;;;;;;;;;;;;;;;6.71;100.00;100952.69;5014726;28;20431;-81
2024/01/11 17:53:05;;;;;;;;;;;;;;;6.73;100.00;100953.56;5014843;28;19921;-89
2024/01/11 17:55:30;;;;;;;;;;;;;;;6.75;100.00;100952.66;5015181;28;19913;-80
2024/01/11 17:57:57;;;;;;;;;;;;;;;6.76;100.00;100947.38;5013370;28;19990;-82
2024/01/11 18:00:22;;;;;;;;;;;;;;;6.84;100.00;100960.47;5014632;28;20012;-82
2024/01/11 18:02:47;;;;;;;;;;;;;;;6.82;100.00;100957.00;5014754;28;20034;-81
2024/01/11 18:05:13;;;;;;;;;;;;;;;6.86;100.00;100961.34;4996853;28;19917;-78
2024/01/11 18:07:39;;;;;;;;;;;;;;;6.88;100.00;100963.06;5014706;28;20418;-82
2024/01/11 18:10:05;;;;;;;;;;;;;;;6.90;100.00;100955.16;5014500;28;19921;-81
2024/01/11 18:12:32;;;;;;;;;;;;;;;6.89;100.00;100959.56;5013391;28;20373;-83
2024/01/11 18:14:58;;;;;;;;;;;;;;;6.95;100.00;100961.25;5014511;28;19932;-80
2024/01/11 18:17:23;;;;;;;;;;;;;;;6.96;100.00;100960.38;5014567;28;20331;-81
2024/01/11 18:19:48;;;;;;;;;;;;;;;6.97;100.00;100959.47;5014318;28;20008;-82
2024/01/11 18:22:14;;;;;;;;;;;;;;;6.99;100.00;100955.09;4996635;28;19990;-79
2024/01/11 18:24:39;;;;;;;;;;;;;;;7.03;100.00;100964.69;5014336;28;20054;-79
2024/01/11 18:27:08;;;;;;;;;;;;;;;7.03;100.00;100959.41;5012887;28;19921;-79
2024/01/11 18:29:33;;;;;;;;;;;;;;;7.04;100.00;100963.81;5014197;28;20396;-81
2024/01/11 18:31:59;;;;;;;;;;;;;;;7.07;100.00;100963.78;5014078;28;19921;-83
2024/01/11 18:34:24;;;;;;;;;;;;;;;7.08;100.00;100965.53;5014222;28;19918;-84
2024/01/11 18:36:49;;;;;;;;;;;;;;;7.10;100.00;100973.44;5013992;28;19925;-80
2024/01/11 18:39:15;;;;;;;;;;;;;;;7.14;100.00;100964.59;5014080;28;19918;-83
2024/01/11 18:41:41;;;;;;;;;;;;;;;7.15;100.00;100968.09;5012710;28;19947;-82
2024/01/11 18:44:06;;;;;;;;;;;;;;;7.16;100.00;100961.94;5013902;28;19917;-84
2024/01/11 18:46:36;;;;;;;;;;;;;;;7.19;100.00;100962.78;5014215;28;20412;-81
2024/01/11 18:49:02;;;;;;;;;;;;;;;7.20;100.00;100963.66;5013636;28;20435;-84
2024/01/11 18:51:27;;;;;;;;;;;;;;;7.22;100.00;100967.16;5013768;28;19917;-82
2024/01/11 18:53:52;;;;;;;;;;;;;;;7.21;100.00;100968.94;5013910;28;19927;-86
2024/01/11 18:56:17;;;;;;;;;;;;;;;7.23;100.00;100961.00;4986021;28;20361;-84
2024/01/11 18:58:43;;;;;;;;;;;;;;;7.24;100.00;100960.09;4995692;28;20400;-84
2024/01/11 19:01:08;;;;;;;;;;;;;;;7.25;100.00;100964.50;5013892;28;19929;-84
2024/01/11 19:03:34;;;;;;;;;;;;;;;7.27;100.00;100966.22;5013844;28;19925;-83
2024/01/11 19:06:00;;;;;;;;;;;;;;;7.29;100.00;100966.19;4995139;28;19976;-80
2024/01/11 19:08:27;;;;;;;;;;;;;;;7.28;100.00;100953.91;5013481;28;20410;-83
2024/01/11 19:10:53;;;;;;;;;;;;;;;7.30;100.00;100957.41;5013310;28;19925;-83
2024/01/11 19:13:18;;;;;;;;;;;;;;;7.32;100.00;100957.38;5012063;28;19928;-85
2024/01/11 19:15:43;;;;;;;;;;;;;;;7.31;100.00;100956.53;5013382;28;19925;-79
2024/01/11 19:18:08;;;;;;;;;;;;;;;7.33;100.00;100953.88;5012184;28;19918;-81
2024/01/11 19:20:34;;;;;;;;;;;;;;;7.33;100.00;100961.78;4993888;28;19926;-88
2024/01/11 19:22:59;;;;;;;;;;;;;;;7.33;100.00;100957.38;4993510;28;19918;-83
2024/01/11 19:25:24;;;;;;;;;;;;;;;7.35;100.00;100957.34;4976205;28;19928;-79
2024/01/11 19:27:52;;;;;;;;;;;;;;;7.37;100.00;100956.47;4990505;28;19949;-88
2024/01/11 19:30:17;;;;;;;;;;;;;;;6.89;100.00;100962.19;4975478;28;19922;-82
2024/01/11 19:32:43;;;;;;;;;;;;;;;6.14;100.00;100960.09;4993683;28;19981;-84
2024/01/11 19:35:09;;;;;;;;;;;;;;;5.88;100.00;100961.09;4975323;28;20408;-81
2024/01/11 19:37:35;;;;;;;;;;;;;;;5.76;100.00;100963.78;4993343;28;19921;-82
2024/01/11 19:40:00;;;;;;;;;;;;;;;5.64;100.00;100962.06;4992655;28;20024;-80
2024/01/11 19:42:25;;;;;;;;;;;;;;;5.54;100.00;100966.50;4991889;28;19926;-80
2024/01/11 19:44:50;;;;;;;;;;;;;;;5.48;100.00;100971.78;4992179;28;19928;-82
2024/01/11 19:47:16;;;;;;;;;;;;;;;5.39;100.00;100975.31;4975638;28;19922;-80
2024/01/11 19:49:41;;;;;;;;;;;;;;;5.31;100.00;100970.94;4992969;28;19969;-79
2024/01/11 19:52:06;;;;;;;;;;;;;;;5.30;100.00;100977.06;4992160;28;19926;-80
2024/01/11 19:54:31;;;;;;;;;;;;;;;5.26;100.00;100970.94;4993029;28;19918;-80
2024/01/11 19:56:56;;;;;;;;;;;;;;;5.20;100.00;100971.84;4991530;28;19933;-79
2024/01/11 19:59:24;;;;;;;;;;;;;;;5.20;100.00;100977.09;4993056;28;19918;-79
2024/01/11 20:01:49;;;;;;;;;;;;;;;5.16;100.00;100974.50;4993042;28;19918;-78
2024/01/11 20:04:14;;;;;;;;;;;;;;;5.09;100.00;100973.63;4992868;28;19944;-84
2024/01/11 20:06:41;;;;;;;;;;;;;;;5.10;100.00;100967.47;4975197;28;19925;-78
2024/01/11 20:09:07;;;;;;;;;;;;;;;5.07;100.00;100973.63;4992432;28;20008;-78
2024/01/11 20:11:32;;;;;;;;;;;;;;;5.00;100.00;100981.50;4973772;28;20867;-80
2024/01/11 20:13:57;;;;;;;;;;;;;;;5.02;100.00;100982.38;4992678;28;19924;-83
2024/01/11 20:16:22;;;;;;;;;;;;;;;4.99;100.00;100983.25;4992778;28;19922;-81
2024/01/11 20:18:48;;;;;;;;;;;;;;;4.96;100.00;100985.00;4994510;28;19945;-82
2024/01/11 20:21:13;;;;;;;;;;;;;;;4.93;100.00;100995.50;4992514;28;19921;-80
2024/01/11 20:23:44;;;;;;;;;;;;;;;4.89;100.00;100990.25;5002097;28;19922;-79
2024/01/11 20:26:11;;;;;;;;;;;;;;;4.87;100.00;100991.16;5000715;28;19922;-86
2024/01/11 20:28:36;;;;;;;;;;;;;;;4.89;100.00;100992.88;5002839;28;20392;-82
2024/01/11 20:31:01;;;;;;;;;;;;;;;4.84;100.00;100996.41;5002315;28;19957;-82
2024/01/11 20:33:27;;;;;;;;;;;;;;;4.83;100.00;100982.38;5002230;28;19928;-84
2024/01/11 20:35:53;;;;;;;;;;;;;;;4.81;100.00;100994.63;5002229;28;19944;-80
2024/01/11 20:38:19;;;;;;;;;;;;;;;4.80;100.00;101000.75;5002390;28;19947;-81
2024/01/11 20:40:45;;;;;;;;;;;;;;;4.77;100.00;100995.53;5001938;28;20480;-83
2024/01/11 20:43:11;;;;;;;;;;;;;;;4.75;100.00;100999.88;5000596;28;20381;-78
2024/01/11 20:45:36;;;;;;;;;;;;;;;4.79;100.00;101004.28;5002516;28;20028;-83
2024/01/11 20:48:02;;;;;;;;;;;;;;;4.72;100.00;100995.53;5002167;28;20324;-83
2024/01/11 20:50:27;;;;;;;;;;;;;;;4.72;100.00;100999.88;4983847;28;19983;-80
2024/01/11 20:52:53;;;;;;;;;;;;;;;4.73;100.00;101001.66;4984451;28;19922;-82
2024/01/11 20:55:18;;;;;;;;;;;;;;;4.71;100.00;100995.53;4984780;28;20056;-82
2024/01/11 20:57:44;;;;;;;;;;;;;;;4.73;100.00;100996.41;4983093;28;19976;-81
2024/01/11 21:00:09;;;;;;;;;;;;;;;4.70;100.00;100992.00;5001956;28;19950;-81
2024/01/11 21:02:34;;;;;;;;;;;;;;;4.71;100.00;100998.16;5001782;28;19921;-80
2024/01/11 21:05:00;;;;;;;;;;;;;;;4.71;100.00;101000.78;5001993;28;19928;-79
2024/01/11 21:07:25;;;;;;;;;;;;;;;4.66;100.00;100999.88;5001797;28;19922;-79
2024/01/11 21:09:50;;;;;;;;;;;;;;;4.64;100.00;101002.53;5001970;28;19925;-79
2024/01/11 21:12:15;;;;;;;;;;;;;;;4.69;100.00;101013.00;4975093;28;19929;-80
2024/01/11 21:14:41;;;;;;;;;;;;;;;4.62;100.00;101011.25;5002041;28;20011;-78
2024/01/11 21:17:06;;;;;;;;;;;;;;;4.60;100.00;101016.50;5001720;28;20004;-77
2024/01/11 21:19:31;;;;;;;;;;;;;;;4.63;100.00;101024.41;5001729;28;19922;-78
2024/01/11 21:21:56;;;;;;;;;;;;;;;4.62;100.00;101019.16;5002968;28;19917;-78
2024/01/11 21:24:22;;;;;;;;;;;;;;;4.58;100.00;101025.25;4988061;28;19921;-77
2024/01/11 21:26:47;;;;;;;;;;;;;;;4.54;100.00;101022.63;4986406;28;20289;-79
2024/01/11 21:29:12;;;;;;;;;;;;;;;4.57;100.00;101018.28;5005281;28;19929;-77